sensor_id;sensor_type;location;lat;lon;timestamp;temperature;humidity
52791;DHT22;41253;46.856;-71.574;2022-09-13T00:01:23;18.60;99.90
52791;DHT22;41253;46.856;-71.574;2022-09-13T00:03:50;18.60;99.90
52791;DHT22;41253;46.856;-71.574;2022-09-13T00:06:18;18.60;99.90
52791;DHT22;41253;46.856;-71.574;2022-09-13T00:08:45;18.50;99.90
52791;DHT22;41253;46.856;-71.574;2022-09-13T00:11:24;18.50;99.90
52791;DHT22;41253;46.856;-71.574;2022-09-13T00:13:51;18.50;99.90
52791;DHT22;41253;46.856;-71.574;2022-09-13T00:16:19;18.50;99.90
52791;DHT22;41253;46.856;-71.574;2022-09-13T00:18:46;18.60;99.90
52791;DHT22;41253;46.856;-71.574;2022-09-13T00:21:15;18.50;99.90
52791;DHT22;41253;46.856;-71.574;2022-09-13T00:23:46;18.40;99.90
52791;DHT22;41253;46.856;-71.574;2022-09-13T00:26:17;18.40;99.90
52791;DHT22;41253;46.856;-71.574;2022-09-13T00:28:44;18.30;99.90
52791;DHT22;41253;46.856;-71.574;2022-09-13T00:31:11;18.40;99.90
52791;DHT22;41253;46.856;-71.574;2022-09-13T00:33:37;18.30;99.90
52791;DHT22;41253;46.856;-71.574;2022-09-13T00:36:05;18.20;99.90
52791;DHT22;41253;46.856;-71.574;2022-09-13T00:38:35;18.10;99.90
52791;DHT22;41253;46.856;-71.574;2022-09-13T00:41:04;18.10;99.90
52791;DHT22;41253;46.856;-71.574;2022-09-13T00:43:44;18.10;99.90
52791;DHT22;41253;46.856;-71.574;2022-09-13T00:48:54;17.90;99.90
52791;DHT22;41253;46.856;-71.574;2022-09-13T00:51:21;17.70;99.90
52791;DHT22;41253;46.856;-71.574;2022-09-13T00:53:50;17.60;99.90
52791;DHT22;41253;46.856;-71.574;2022-09-13T00:56:28;17.50;99.90
52791;DHT22;41253;46.856;-71.574;2022-09-13T00:59:00;17.60;99.90
52791;DHT22;41253;46.856;-71.574;2022-09-13T01:01:43;17.60;99.90
52791;DHT22;41253;46.856;-71.574;2022-09-13T01:04:12;17.60;99.90
52791;DHT22;41253;46.856;-71.574;2022-09-13T01:06:39;17.60;99.90
52791;DHT22;41253;46.856;-71.574;2022-09-13T01:09:09;17.50;99.90
52791;DHT22;41253;46.856;-71.574;2022-09-13T01:11:46;17.40;99.90
52791;DHT22;41253;46.856;-71.574;2022-09-13T01:14:18;17.30;99.90
52791;DHT22;41253;46.856;-71.574;2022-09-13T01:16:45;17.30;99.90
52791;DHT22;41253;46.856;-71.574;2022-09-13T01:19:12;17.40;99.90
52791;DHT22;41253;46.856;-71.574;2022-09-13T01:22:05;17.30;99.90
52791;DHT22;41253;46.856;-71.574;2022-09-13T01:27:34;17.10;99.90
52791;DHT22;41253;46.856;-71.574;2022-09-13T01:30:19;17.10;99.90
52791;DHT22;41253;46.856;-71.574;2022-09-13T01:47:26;17.10;99.90
52791;DHT22;41253;46.856;-71.574;2022-09-13T01:50:12;16.90;99.90
52791;DHT22;41253;46.856;-71.574;2022-09-13T01:52:57;16.80;99.90
52791;DHT22;41253;46.856;-71.574;2022-09-13T01:55:43;16.70;99.90
52791;DHT22;41253;46.856;-71.574;2022-09-13T01:58:28;16.60;99.90
52791;DHT22;41253;46.856;-71.574;2022-09-13T02:03:34;16.60;99.90
52791;DHT22;41253;46.856;-71.574;2022-09-13T02:06:10;16.60;99.90
52791;DHT22;41253;46.856;-71.574;2022-09-13T02:08:48;16.70;99.90
52791;DHT22;41253;46.856;-71.574;2022-09-13T02:11:17;16.80;99.90
52791;DHT22;41253;46.856;-71.574;2022-09-13T02:14:04;16.80;99.90
52791;DHT22;41253;46.856;-71.574;2022-09-13T02:16:38;16.80;99.90
52791;DHT22;41253;46.856;-71.574;2022-09-13T02:19:16;16.80;99.90
52791;DHT22;41253;46.856;-71.574;2022-09-13T02:21:49;16.80;99.90
52791;DHT22;41253;46.856;-71.574;2022-09-13T02:24:34;16.80;99.90
52791;DHT22;41253;46.856;-71.574;2022-09-13T02:27:11;16.70;99.90
52791;DHT22;41253;46.856;-71.574;2022-09-13T02:29:40;16.70;99.90
52791;DHT22;41253;46.856;-71.574;2022-09-13T02:32:39;16.70;99.90
52791;DHT22;41253;46.856;-71.574;2022-09-13T02:35:13;16.50;99.90
52791;DHT22;41253;46.856;-71.574;2022-09-13T02:37:43;16.30;99.90
52791;DHT22;41253;46.856;-71.574;2022-09-13T02:40:16;16.20;99.90
52791;DHT22;41253;46.856;-71.574;2022-09-13T02:42:51;16.30;99.90
52791;DHT22;41253;46.856;-71.574;2022-09-13T02:45:20;16.30;99.90
52791;DHT22;41253;46.856;-71.574;2022-09-13T02:47:59;16.30;99.90
52791;DHT22;41253;46.856;-71.574;2022-09-13T02:50:39;16.30;99.90
52791;DHT22;41253;46.856;-71.574;2022-09-13T02:58:52;16.10;99.90
52791;DHT22;41253;46.856;-71.574;2022-09-13T03:01:22;15.90;99.90
52791;DHT22;41253;46.856;-71.574;2022-09-13T03:03:48;16.00;99.90
52791;DHT22;41253;46.856;-71.574;2022-09-13T03:06:24;16.00;99.90
52791;DHT22;41253;46.856;-71.574;2022-09-13T03:08:55;16.00;99.90
52791;DHT22;41253;46.856;-71.574;2022-09-13T03:11:35;16.00;99.90
52791;DHT22;41253;46.856;-71.574;2022-09-13T03:19:39;15.90;99.90
52791;DHT22;41253;46.856;-71.574;2022-09-13T03:25:20;15.90;99.90
52791;DHT22;41253;46.856;-71.574;2022-09-13T03:39:56;15.60;99.90
52791;DHT22;41253;46.856;-71.574;2022-09-13T03:42:37;15.60;99.90
52791;DHT22;41253;46.856;-71.574;2022-09-13T03:45:08;15.60;99.90
52791;DHT22;41253;46.856;-71.574;2022-09-13T03:47:36;15.70;99.90
52791;DHT22;41253;46.856;-71.574;2022-09-13T03:50:06;15.70;99.90
52791;DHT22;41253;46.856;-71.574;2022-09-13T03:52:34;15.70;99.90
52791;DHT22;41253;46.856;-71.574;2022-09-13T03:55:01;15.70;99.90
52791;DHT22;41253;46.856;-71.574;2022-09-13T03:57:27;15.70;99.90
52791;DHT22;41253;46.856;-71.574;2022-09-13T03:59:55;15.60;99.90
52791;DHT22;41253;46.856;-71.574;2022-09-13T04:02:24;15.40;99.90
52791;DHT22;41253;46.856;-71.574;2022-09-13T04:04:51;15.30;99.90
52791;DHT22;41253;46.856;-71.574;2022-09-13T04:07:20;15.30;99.90
52791;DHT22;41253;46.856;-71.574;2022-09-13T04:09:46;15.40;99.90
52791;DHT22;41253;46.856;-71.574;2022-09-13T04:12:14;15.40;99.90
52791;DHT22;41253;46.856;-71.574;2022-09-13T04:14:41;15.40;99.90
52791;DHT22;41253;46.856;-71.574;2022-09-13T04:17:11;15.40;99.90
52791;DHT22;41253;46.856;-71.574;2022-09-13T04:19:38;15.40;99.90
52791;DHT22;41253;46.856;-71.574;2022-09-13T04:22:05;15.40;99.90
52791;DHT22;41253;46.856;-71.574;2022-09-13T04:24:32;15.50;99.90
52791;DHT22;41253;46.856;-71.574;2022-09-13T04:27:00;15.50;99.90
52791;DHT22;41253;46.856;-71.574;2022-09-13T04:29:27;15.50;99.90
52791;DHT22;41253;46.856;-71.574;2022-09-13T04:31:54;15.60;99.90
52791;DHT22;41253;46.856;-71.574;2022-09-13T04:34:21;15.60;99.90
52791;DHT22;41253;46.856;-71.574;2022-09-13T04:36:49;15.70;99.90
52791;DHT22;41253;46.856;-71.574;2022-09-13T04:39:18;15.70;99.90
52791;DHT22;41253;46.856;-71.574;2022-09-13T04:41:46;15.70;99.90
52791;DHT22;41253;46.856;-71.574;2022-09-13T04:44:14;15.70;99.90
52791;DHT22;41253;46.856;-71.574;2022-09-13T04:46:41;15.70;99.90
52791;DHT22;41253;46.856;-71.574;2022-09-13T04:49:10;15.70;99.90
52791;DHT22;41253;46.856;-71.574;2022-09-13T04:51:37;15.70;99.90
52791;DHT22;41253;46.856;-71.574;2022-09-13T04:54:04;15.80;99.90
52791;DHT22;41253;46.856;-71.574;2022-09-13T04:56:30;15.70;99.90
52791;DHT22;41253;46.856;-71.574;2022-09-13T04:58:56;15.70;99.90
52791;DHT22;41253;46.856;-71.574;2022-09-13T05:01:23;15.70;99.90
52791;DHT22;41253;46.856;-71.574;2022-09-13T05:03:50;15.60;99.90
52791;DHT22;41253;46.856;-71.574;2022-09-13T05:06:18;15.50;99.90
52791;DHT22;41253;46.856;-71.574;2022-09-13T05:08:53;15.40;99.90
52791;DHT22;41253;46.856;-71.574;2022-09-13T05:11:25;15.30;99.90
52791;DHT22;41253;46.856;-71.574;2022-09-13T05:13:54;15.20;99.90
52791;DHT22;41253;46.856;-71.574;2022-09-13T05:16:28;15.10;99.90
52791;DHT22;41253;46.856;-71.574;2022-09-13T05:18:54;15.00;99.90
52791;DHT22;41253;46.856;-71.574;2022-09-13T05:21:22;15.00;99.90
52791;DHT22;41253;46.856;-71.574;2022-09-13T05:23:50;15.00;99.90
52791;DHT22;41253;46.856;-71.574;2022-09-13T05:26:17;15.00;99.90
52791;DHT22;41253;46.856;-71.574;2022-09-13T05:28:43;14.90;99.90
52791;DHT22;41253;46.856;-71.574;2022-09-13T05:31:15;14.80;99.90
52791;DHT22;41253;46.856;-71.574;2022-09-13T05:33:42;14.70;99.90
52791;DHT22;41253;46.856;-71.574;2022-09-13T05:36:08;14.60;99.90
52791;DHT22;41253;46.856;-71.574;2022-09-13T05:38:35;14.40;99.90
52791;DHT22;41253;46.856;-71.574;2022-09-13T05:41:03;14.30;99.90
52791;DHT22;41253;46.856;-71.574;2022-09-13T05:43:32;14.20;99.90
52791;DHT22;41253;46.856;-71.574;2022-09-13T05:46:07;14.30;99.90
52791;DHT22;41253;46.856;-71.574;2022-09-13T05:48:35;14.40;99.90
52791;DHT22;41253;46.856;-71.574;2022-09-13T05:53:32;14.40;99.90
52791;DHT22;41253;46.856;-71.574;2022-09-13T05:55:59;14.40;99.90
52791;DHT22;41253;46.856;-71.574;2022-09-13T05:58:25;14.30;99.90
52791;DHT22;41253;46.856;-71.574;2022-09-13T06:00:53;14.20;99.90
52791;DHT22;41253;46.856;-71.574;2022-09-13T06:03:21;14.20;99.90
52791;DHT22;41253;46.856;-71.574;2022-09-13T06:05:47;14.10;99.90
52791;DHT22;41253;46.856;-71.574;2022-09-13T06:08:14;14.20;99.90
52791;DHT22;41253;46.856;-71.574;2022-09-13T06:10:40;14.40;99.90
52791;DHT22;41253;46.856;-71.574;2022-09-13T06:13:07;14.40;99.90
52791;DHT22;41253;46.856;-71.574;2022-09-13T06:15:33;14.40;99.90
52791;DHT22;41253;46.856;-71.574;2022-09-13T06:17:59;14.50;99.90
52791;DHT22;41253;46.856;-71.574;2022-09-13T06:20:26;14.60;99.90
52791;DHT22;41253;46.856;-71.574;2022-09-13T06:22:52;14.70;99.90
52791;DHT22;41253;46.856;-71.574;2022-09-13T06:25:18;14.80;99.90
52791;DHT22;41253;46.856;-71.574;2022-09-13T06:27:45;14.80;99.90
52791;DHT22;41253;46.856;-71.574;2022-09-13T06:30:11;14.80;99.90
52791;DHT22;41253;46.856;-71.574;2022-09-13T06:32:38;14.80;99.90
52791;DHT22;41253;46.856;-71.574;2022-09-13T06:35:05;14.80;99.90
52791;DHT22;41253;46.856;-71.574;2022-09-13T06:37:31;14.70;99.90
52791;DHT22;41253;46.856;-71.574;2022-09-13T06:39:58;14.70;99.90
52791;DHT22;41253;46.856;-71.574;2022-09-13T06:42:24;14.80;99.90
52791;DHT22;41253;46.856;-71.574;2022-09-13T06:44:50;14.70;99.90
52791;DHT22;41253;46.856;-71.574;2022-09-13T06:47:16;14.70;99.90
52791;DHT22;41253;46.856;-71.574;2022-09-13T06:49:43;14.50;99.90
52791;DHT22;41253;46.856;-71.574;2022-09-13T06:52:09;14.50;99.90
52791;DHT22;41253;46.856;-71.574;2022-09-13T06:54:36;14.50;99.90
52791;DHT22;41253;46.856;-71.574;2022-09-13T06:57:02;14.50;99.90
52791;DHT22;41253;46.856;-71.574;2022-09-13T06:59:28;14.50;99.90
52791;DHT22;41253;46.856;-71.574;2022-09-13T07:01:55;14.50;99.90
52791;DHT22;41253;46.856;-71.574;2022-09-13T07:04:21;14.40;99.90
52791;DHT22;41253;46.856;-71.574;2022-09-13T07:06:49;14.20;99.90
52791;DHT22;41253;46.856;-71.574;2022-09-13T07:09:19;14.00;99.90
52791;DHT22;41253;46.856;-71.574;2022-09-13T07:11:48;14.00;99.90
52791;DHT22;41253;46.856;-71.574;2022-09-13T07:14:18;14.10;99.90
52791;DHT22;41253;46.856;-71.574;2022-09-13T07:16:45;14.30;99.90
52791;DHT22;41253;46.856;-71.574;2022-09-13T07:19:17;14.50;99.90
52791;DHT22;41253;46.856;-71.574;2022-09-13T07:21:45;14.60;99.90
52791;DHT22;41253;46.856;-71.574;2022-09-13T07:24:12;14.60;99.90
52791;DHT22;41253;46.856;-71.574;2022-09-13T07:26:38;14.60;99.90
52791;DHT22;41253;46.856;-71.574;2022-09-13T07:29:07;14.40;99.90
52791;DHT22;41253;46.856;-71.574;2022-09-13T07:31:38;14.30;99.90
52791;DHT22;41253;46.856;-71.574;2022-09-13T07:34:09;14.20;99.90
52791;DHT22;41253;46.856;-71.574;2022-09-13T07:36:36;14.20;99.90
52791;DHT22;41253;46.856;-71.574;2022-09-13T07:39:04;14.10;99.90
52791;DHT22;41253;46.856;-71.574;2022-09-13T07:41:32;14.00;99.90
52791;DHT22;41253;46.856;-71.574;2022-09-13T07:43:59;14.10;99.90
52791;DHT22;41253;46.856;-71.574;2022-09-13T07:46:31;14.10;99.90
52791;DHT22;41253;46.856;-71.574;2022-09-13T07:48:59;14.10;99.90
52791;DHT22;41253;46.856;-71.574;2022-09-13T07:51:29;14.20;99.90
52791;DHT22;41253;46.856;-71.574;2022-09-13T07:53:59;14.00;99.90
52791;DHT22;41253;46.856;-71.574;2022-09-13T07:56:30;13.80;99.90
52791;DHT22;41253;46.856;-71.574;2022-09-13T07:58:59;13.80;99.90
52791;DHT22;41253;46.856;-71.574;2022-09-13T08:01:27;13.90;99.90
52791;DHT22;41253;46.856;-71.574;2022-09-13T08:04:00;13.90;99.90
52791;DHT22;41253;46.856;-71.574;2022-09-13T08:06:28;14.10;99.90
52791;DHT22;41253;46.856;-71.574;2022-09-13T08:08:55;14.00;99.90
52791;DHT22;41253;46.856;-71.574;2022-09-13T08:11:31;14.10;99.90
52791;DHT22;41253;46.856;-71.574;2022-09-13T08:13:59;14.20;99.90
52791;DHT22;41253;46.856;-71.574;2022-09-13T08:16:26;14.20;99.90
52791;DHT22;41253;46.856;-71.574;2022-09-13T08:18:55;14.30;99.90
52791;DHT22;41253;46.856;-71.574;2022-09-13T08:21:22;14.30;99.90
52791;DHT22;41253;46.856;-71.574;2022-09-13T08:23:52;14.20;99.90
52791;DHT22;41253;46.856;-71.574;2022-09-13T08:26:19;13.90;99.90
52791;DHT22;41253;46.856;-71.574;2022-09-13T08:28:45;13.80;99.90
52791;DHT22;41253;46.856;-71.574;2022-09-13T08:31:14;13.70;99.90
52791;DHT22;41253;46.856;-71.574;2022-09-13T08:33:46;13.70;99.90
52791;DHT22;41253;46.856;-71.574;2022-09-13T08:36:16;13.70;99.90
52791;DHT22;41253;46.856;-71.574;2022-09-13T08:38:47;13.80;99.90
52791;DHT22;41253;46.856;-71.574;2022-09-13T08:44:31;14.10;99.90
52791;DHT22;41253;46.856;-71.574;2022-09-13T08:47:30;14.00;99.90
52791;DHT22;41253;46.856;-71.574;2022-09-13T08:50:13;13.80;99.90
52791;DHT22;41253;46.856;-71.574;2022-09-13T08:55:51;13.70;99.90
52791;DHT22;41253;46.856;-71.574;2022-09-13T08:58:32;13.70;99.90
52791;DHT22;41253;46.856;-71.574;2022-09-13T09:06:35;14.00;99.90
52791;DHT22;41253;46.856;-71.574;2022-09-13T09:09:05;13.90;99.90
52791;DHT22;41253;46.856;-71.574;2022-09-13T09:11:55;13.80;99.90
52791;DHT22;41253;46.856;-71.574;2022-09-13T09:14:31;13.80;99.90
52791;DHT22;41253;46.856;-71.574;2022-09-13T09:17:03;13.90;99.90
52791;DHT22;41253;46.856;-71.574;2022-09-13T09:19:38;13.90;99.90
52791;DHT22;41253;46.856;-71.574;2022-09-13T09:22:20;14.00;99.90
52791;DHT22;41253;46.856;-71.574;2022-09-13T09:24:52;14.00;99.90
52791;DHT22;41253;46.856;-71.574;2022-09-13T09:27:19;13.90;99.90
52791;DHT22;41253;46.856;-71.574;2022-09-13T09:29:54;14.00;99.90
52791;DHT22;41253;46.856;-71.574;2022-09-13T09:33:04;14.00;99.90
52791;DHT22;41253;46.856;-71.574;2022-09-13T09:35:44;14.10;99.90
52791;DHT22;41253;46.856;-71.574;2022-09-13T09:40:52;14.10;99.90
52791;DHT22;41253;46.856;-71.574;2022-09-13T09:43:32;14.10;99.90
52791;DHT22;41253;46.856;-71.574;2022-09-13T09:46:01;14.20;99.90
52791;DHT22;41253;46.856;-71.574;2022-09-13T09:48:36;14.20;99.90
52791;DHT22;41253;46.856;-71.574;2022-09-13T09:51:05;14.30;99.90
52791;DHT22;41253;46.856;-71.574;2022-09-13T09:53:41;14.20;99.90
52791;DHT22;41253;46.856;-71.574;2022-09-13T09:56:25;14.20;99.90
52791;DHT22;41253;46.856;-71.574;2022-09-13T09:58:52;14.20;99.90
52791;DHT22;41253;46.856;-71.574;2022-09-13T10:04:06;14.30;99.90
52791;DHT22;41253;46.856;-71.574;2022-09-13T10:06:34;14.40;99.90
52791;DHT22;41253;46.856;-71.574;2022-09-13T10:09:12;14.40;99.90
52791;DHT22;41253;46.856;-71.574;2022-09-13T10:11:44;14.40;99.90
52791;DHT22;41253;46.856;-71.574;2022-09-13T10:14:44;14.50;99.90
52791;DHT22;41253;46.856;-71.574;2022-09-13T10:17:25;14.50;99.90
52791;DHT22;41253;46.856;-71.574;2022-09-13T10:19:56;14.40;99.90
52791;DHT22;41253;46.856;-71.574;2022-09-13T10:22:31;14.40;99.90
52791;DHT22;41253;46.856;-71.574;2022-09-13T10:25:23;14.40;99.90
52791;DHT22;41253;46.856;-71.574;2022-09-13T10:27:57;14.40;99.90
52791;DHT22;41253;46.856;-71.574;2022-09-13T10:32:56;14.40;99.90
52791;DHT22;41253;46.856;-71.574;2022-09-13T10:35:24;14.40;99.90
52791;DHT22;41253;46.856;-71.574;2022-09-13T10:37:51;14.40;99.90
52791;DHT22;41253;46.856;-71.574;2022-09-13T10:40:28;14.50;99.90
52791;DHT22;41253;46.856;-71.574;2022-09-13T10:42:57;14.50;99.90
52791;DHT22;41253;46.856;-71.574;2022-09-13T10:45:27;14.50;99.90
52791;DHT22;41253;46.856;-71.574;2022-09-13T10:48:02;14.50;99.90
52791;DHT22;41253;46.856;-71.574;2022-09-13T10:50:30;14.50;99.90
52791;DHT22;41253;46.856;-71.574;2022-09-13T10:52:58;14.50;99.90
52791;DHT22;41253;46.856;-71.574;2022-09-13T10:55:29;14.50;99.90
52791;DHT22;41253;46.856;-71.574;2022-09-13T11:08:55;14.60;99.90
52791;DHT22;41253;46.856;-71.574;2022-09-13T11:11:26;14.60;99.90
52791;DHT22;41253;46.856;-71.574;2022-09-13T11:14:30;14.60;99.90
52791;DHT22;41253;46.856;-71.574;2022-09-13T11:17:24;14.70;99.90
52791;DHT22;41253;46.856;-71.574;2022-09-13T11:20:22;14.80;99.90
52791;DHT22;41253;46.856;-71.574;2022-09-13T11:29:43;14.90;99.90
52791;DHT22;41253;46.856;-71.574;2022-09-13T11:35:08;15.10;99.90
52791;DHT22;41253;46.856;-71.574;2022-09-13T11:46:10;15.50;99.90
52791;DHT22;41253;46.856;-71.574;2022-09-13T11:51:29;15.70;99.90
52791;DHT22;41253;46.856;-71.574;2022-09-13T11:56:43;15.90;99.90
52791;DHT22;41253;46.856;-71.574;2022-09-13T11:59:44;16.00;99.90
52791;DHT22;41253;46.856;-71.574;2022-09-13T12:02:47;16.10;99.90
52791;DHT22;41253;46.856;-71.574;2022-09-13T12:07:57;16.60;99.90
52791;DHT22;41253;46.856;-71.574;2022-09-13T12:13:12;16.90;99.90
52791;DHT22;41253;46.856;-71.574;2022-09-13T12:15:42;17.10;99.90
52791;DHT22;41253;46.856;-71.574;2022-09-13T12:18:17;17.30;99.90
52791;DHT22;41253;46.856;-71.574;2022-09-13T12:21:22;17.50;99.90
52791;DHT22;41253;46.856;-71.574;2022-09-13T12:26:58;17.80;99.90
52791;DHT22;41253;46.856;-71.574;2022-09-13T12:32:07;18.10;99.90
52791;DHT22;41253;46.856;-71.574;2022-09-13T12:37:23;18.40;99.90
52791;DHT22;41253;46.856;-71.574;2022-09-13T12:53:35;19.10;99.90
52791;DHT22;41253;46.856;-71.574;2022-09-13T12:56:49;19.20;99.90
52791;DHT22;41253;46.856;-71.574;2022-09-13T13:05:04;19.60;99.90
52791;DHT22;41253;46.856;-71.574;2022-09-13T13:07:34;19.80;99.90
52791;DHT22;41253;46.856;-71.574;2022-09-13T13:10:03;19.90;99.90
52791;DHT22;41253;46.856;-71.574;2022-09-13T13:12:36;20.10;99.90
52791;DHT22;41253;46.856;-71.574;2022-09-13T13:15:07;20.30;99.90
52791;DHT22;41253;46.856;-71.574;2022-09-13T13:17:53;20.40;99.90
52791;DHT22;41253;46.856;-71.574;2022-09-13T13:20:44;20.40;99.90
52791;DHT22;41253;46.856;-71.574;2022-09-13T13:23:31;20.50;99.90
52791;DHT22;41253;46.856;-71.574;2022-09-13T13:28:55;20.70;99.90
52791;DHT22;41253;46.856;-71.574;2022-09-13T13:36:31;20.50;99.90
52791;DHT22;41253;46.856;-71.574;2022-09-13T13:49:49;21.00;99.90
52791;DHT22;41253;46.856;-71.574;2022-09-13T13:58:26;21.40;99.90
52791;DHT22;41253;46.856;-71.574;2022-09-13T14:00:55;21.30;99.90
52791;DHT22;41253;46.856;-71.574;2022-09-13T14:14:24;21.70;99.90
52791;DHT22;41253;46.856;-71.574;2022-09-13T14:17:40;21.90;99.90
52791;DHT22;41253;46.856;-71.574;2022-09-13T14:20:15;21.90;99.90
52791;DHT22;41253;46.856;-71.574;2022-09-13T14:22:42;22.00;99.90
52791;DHT22;41253;46.856;-71.574;2022-09-13T14:27:45;22.20;99.90
52791;DHT22;41253;46.856;-71.574;2022-09-13T14:30:41;22.50;99.90
52791;DHT22;41253;46.856;-71.574;2022-09-13T14:33:39;22.60;99.90
52791;DHT22;41253;46.856;-71.574;2022-09-13T14:36:13;22.50;99.90
52791;DHT22;41253;46.856;-71.574;2022-09-13T14:38:50;22.60;99.90
52791;DHT22;41253;46.856;-71.574;2022-09-13T14:41:19;22.60;99.90
52791;DHT22;41253;46.856;-71.574;2022-09-13T14:43:47;22.60;99.90
52791;DHT22;41253;46.856;-71.574;2022-09-13T14:46:22;22.80;99.90
52791;DHT22;41253;46.856;-71.574;2022-09-13T14:48:59;23.00;99.90
52791;DHT22;41253;46.856;-71.574;2022-09-13T14:51:38;23.20;99.90
52791;DHT22;41253;46.856;-71.574;2022-09-13T14:54:20;23.30;99.90
52791;DHT22;41253;46.856;-71.574;2022-09-13T14:56:52;23.00;99.90
52791;DHT22;41253;46.856;-71.574;2022-09-13T14:59:33;23.00;99.90
52791;DHT22;41253;46.856;-71.574;2022-09-13T15:02:24;22.90;99.90
52791;DHT22;41253;46.856;-71.574;2022-09-13T15:04:56;23.00;99.90
52791;DHT22;41253;46.856;-71.574;2022-09-13T15:07:29;23.10;99.90
52791;DHT22;41253;46.856;-71.574;2022-09-13T15:10:08;23.00;99.90
52791;DHT22;41253;46.856;-71.574;2022-09-13T15:12:35;23.20;99.90
52791;DHT22;41253;46.856;-71.574;2022-09-13T15:15:22;23.30;99.90
52791;DHT22;41253;46.856;-71.574;2022-09-13T15:18:00;23.40;99.90
52791;DHT22;41253;46.856;-71.574;2022-09-13T15:23:25;23.10;99.90
52791;DHT22;41253;46.856;-71.574;2022-09-13T15:28:33;23.40;99.90
52791;DHT22;41253;46.856;-71.574;2022-09-13T15:31:28;23.40;99.90
52791;DHT22;41253;46.856;-71.574;2022-09-13T15:34:29;23.30;99.90
52791;DHT22;41253;46.856;-71.574;2022-09-13T15:37:12;23.50;99.90
52791;DHT22;41253;46.856;-71.574;2022-09-13T15:40:09;23.40;99.90
52791;DHT22;41253;46.856;-71.574;2022-09-13T15:42:36;23.60;99.90
52791;DHT22;41253;46.856;-71.574;2022-09-13T15:45:03;23.60;99.90
52791;DHT22;41253;46.856;-71.574;2022-09-13T15:47:29;23.60;99.90
52791;DHT22;41253;46.856;-71.574;2022-09-13T15:49:56;23.40;99.90
52791;DHT22;41253;46.856;-71.574;2022-09-13T15:52:23;23.50;99.90
52791;DHT22;41253;46.856;-71.574;2022-09-13T15:54:50;23.50;99.90
52791;DHT22;41253;46.856;-71.574;2022-09-13T15:57:22;23.50;99.90
52791;DHT22;41253;46.856;-71.574;2022-09-13T15:59:50;23.40;99.90
52791;DHT22;41253;46.856;-71.574;2022-09-13T16:02:24;23.10;99.90
52791;DHT22;41253;46.856;-71.574;2022-09-13T16:04:52;23.30;99.90
52791;DHT22;41253;46.856;-71.574;2022-09-13T16:07:19;23.30;99.90
52791;DHT22;41253;46.856;-71.574;2022-09-13T16:09:46;23.40;99.90
52791;DHT22;41253;46.856;-71.574;2022-09-13T16:12:14;23.40;99.90
52791;DHT22;41253;46.856;-71.574;2022-09-13T16:14:40;23.50;99.90
52791;DHT22;41253;46.856;-71.574;2022-09-13T16:19:46;23.60;99.90
52791;DHT22;41253;46.856;-71.574;2022-09-13T16:22:13;23.80;99.90
52791;DHT22;41253;46.856;-71.574;2022-09-13T16:24:39;23.80;99.90
52791;DHT22;41253;46.856;-71.574;2022-09-13T16:27:06;23.80;99.90
52791;DHT22;41253;46.856;-71.574;2022-09-13T16:29:32;23.80;99.90
52791;DHT22;41253;46.856;-71.574;2022-09-13T16:31:58;23.80;99.90
52791;DHT22;41253;46.856;-71.574;2022-09-13T16:34:26;23.70;99.90
52791;DHT22;41253;46.856;-71.574;2022-09-13T16:36:53;23.30;99.90
52791;DHT22;41253;46.856;-71.574;2022-09-13T16:39:19;23.40;99.90
52791;DHT22;41253;46.856;-71.574;2022-09-13T16:41:45;23.60;99.90
52791;DHT22;41253;46.856;-71.574;2022-09-13T16:44:12;23.80;99.90
52791;DHT22;41253;46.856;-71.574;2022-09-13T16:46:39;23.90;99.90
52791;DHT22;41253;46.856;-71.574;2022-09-13T16:49:06;23.90;99.90
52791;DHT22;41253;46.856;-71.574;2022-09-13T16:51:32;24.10;99.90
52791;DHT22;41253;46.856;-71.574;2022-09-13T16:53:59;24.20;99.90
52791;DHT22;41253;46.856;-71.574;2022-09-13T16:56:26;24.20;99.90
52791;DHT22;41253;46.856;-71.574;2022-09-13T16:58:53;24.30;99.90
52791;DHT22;41253;46.856;-71.574;2022-09-13T17:01:27;24.40;99.90
52791;DHT22;41253;46.856;-71.574;2022-09-13T17:03:54;24.50;99.90
52791;DHT22;41253;46.856;-71.574;2022-09-13T17:06:22;24.60;99.90
52791;DHT22;41253;46.856;-71.574;2022-09-13T17:08:54;24.70;99.90
52791;DHT22;41253;46.856;-71.574;2022-09-13T17:11:24;25.10;99.90
52791;DHT22;41253;46.856;-71.574;2022-09-13T17:13:50;25.50;99.90
52791;DHT22;41253;46.856;-71.574;2022-09-13T17:16:22;25.40;99.90
52791;DHT22;41253;46.856;-71.574;2022-09-13T17:18:49;25.30;99.90
52791;DHT22;41253;46.856;-71.574;2022-09-13T17:21:16;25.70;99.90
52791;DHT22;41253;46.856;-71.574;2022-09-13T17:23:42;25.80;99.90
52791;DHT22;41253;46.856;-71.574;2022-09-13T17:26:09;25.90;99.90
52791;DHT22;41253;46.856;-71.574;2022-09-13T17:28:36;25.50;99.90
52791;DHT22;41253;46.856;-71.574;2022-09-13T17:31:02;25.60;99.90
52791;DHT22;41253;46.856;-71.574;2022-09-13T17:33:28;25.70;99.90
52791;DHT22;41253;46.856;-71.574;2022-09-13T17:36:04;25.80;99.90
52791;DHT22;41253;46.856;-71.574;2022-09-13T17:38:33;26.10;99.90
52791;DHT22;41253;46.856;-71.574;2022-09-13T17:41:08;25.40;99.90
52791;DHT22;41253;46.856;-71.574;2022-09-13T17:43:38;25.40;99.90
52791;DHT22;41253;46.856;-71.574;2022-09-13T17:46:07;25.40;99.90
52791;DHT22;41253;46.856;-71.574;2022-09-13T17:48:35;25.20;99.90
52791;DHT22;41253;46.856;-71.574;2022-09-13T17:51:10;25.20;99.90
52791;DHT22;41253;46.856;-71.574;2022-09-13T17:53:37;25.70;99.90
52791;DHT22;41253;46.856;-71.574;2022-09-13T17:56:05;26.00;99.90
52791;DHT22;41253;46.856;-71.574;2022-09-13T17:58:34;26.00;99.90
52791;DHT22;41253;46.856;-71.574;2022-09-13T18:01:05;25.90;99.90
52791;DHT22;41253;46.856;-71.574;2022-09-13T18:03:32;25.80;99.90
52791;DHT22;41253;46.856;-71.574;2022-09-13T18:06:01;25.60;99.90
52791;DHT22;41253;46.856;-71.574;2022-09-13T18:08:29;25.40;99.90
52791;DHT22;41253;46.856;-71.574;2022-09-13T18:11:01;25.30;99.90
52791;DHT22;41253;46.856;-71.574;2022-09-13T18:13:28;25.20;99.90
52791;DHT22;41253;46.856;-71.574;2022-09-13T18:16:02;25.10;99.90
52791;DHT22;41253;46.856;-71.574;2022-09-13T18:18:29;25.00;99.90
52791;DHT22;41253;46.856;-71.574;2022-09-13T18:20:56;24.70;99.90
52791;DHT22;41253;46.856;-71.574;2022-09-13T18:23:23;24.50;99.90
52791;DHT22;41253;46.856;-71.574;2022-09-13T18:25:58;24.30;99.90
52791;DHT22;41253;46.856;-71.574;2022-09-13T18:28:25;23.90;99.90
52791;DHT22;41253;46.856;-71.574;2022-09-13T18:30:56;23.80;99.90
52791;DHT22;41253;46.856;-71.574;2022-09-13T18:33:23;23.70;99.90
52791;DHT22;41253;46.856;-71.574;2022-09-13T18:38:35;23.60;99.90
52791;DHT22;41253;46.856;-71.574;2022-09-13T18:41:07;23.80;99.90